»·PEaware :: RSP251 KLMT-KOAK

RSP251 :: KLMT-KOAK

FLIGHT INFORMATION

Flight Status: Arrived
Operator: Unknown
More flights by this operator :: More flights under this callsign
Pilot: Tyler J. (19619)
Aircraft: EMBRAER ERJ-135/140
(E135)
More flights by this aircraft type
Origin: KLMT Klamath Falls Intl
United States
Destination: KOAK Metro Oakland Intl
United States
More flights between these airports :: More routes between these airports
Route: LMT J65 RBL RBUCL WNDSR2
File this flight plan on PilotEdge
Remarks:
Altitude:
(Current/Filed)
26,000ft
Speed:
(Current/Filed)
410kts
Departed: 27-Aug-19 06:21 AM
Arrived: 27-Aug-19 07:19 AM
Distance/Time
Traveled:
267nm/0:58
Distance/Time
To Go:
Arrived

Flight Plot

Page will automatically refresh every two minutes.

Flight plan parsing failed; only flown route is shown


Map Options




Map Legend


Flown Route
Filed Route
Departure Airport
Arrival Airport
Navaid (VOR, NDB)
Fix

Horizontal Profiles

Position Reports

Time Latitude Longitude Heading Altitude Ground
Speed
27-Aug-19 06:18 42.143254 -121.727140 90 4098ft 5kts
27-Aug-19 06:19 42.143496 -121.726625 339 4098ft 0kts
27-Aug-19 06:20 42.168275 -121.739867 338 4509ft 185kts
27-Aug-19 06:21 42.218660 -121.776600 303 7404ft 256kts
27-Aug-19 06:22 42.186710 -121.855963 190 10914ft 305kts
27-Aug-19 06:23 42.096336 -121.839923 188 13523ft 346kts
27-Aug-19 06:24 42.000531 -121.863590 188 16066ft 354kts
27-Aug-19 06:25 41.901990 -121.883371 188 18291ft 361kts
27-Aug-19 06:26 41.803336 -121.903195 188 20786ft 354kts
27-Aug-19 06:27 41.706678 -121.922555 188 23155ft 348kts
27-Aug-19 06:28 41.611795 -121.941493 188 25407ft 340kts
27-Aug-19 06:29 41.515722 -121.960620 188 26011ft 365kts
27-Aug-19 06:30 41.410397 -121.981523 188 26003ft 398kts
27-Aug-19 06:31 41.321286 -121.999160 188 26002ft 417kts
27-Aug-19 06:32 41.204222 -122.022255 188 26001ft 434kts
27-Aug-19 06:33 41.082976 -122.046092 188 26001ft 445kts
27-Aug-19 06:34 40.971618 -122.067904 188 26000ft 446kts
27-Aug-19 06:35 40.848297 -122.091972 188 26000ft 449kts
27-Aug-19 06:36 40.724446 -122.116049 188 26000ft 450kts
27-Aug-19 06:37 40.600452 -122.140070 188 26000ft 451kts
27-Aug-19 06:38 40.476184 -122.164049 188 26000ft 452kts
27-Aug-19 06:40 40.351483 -122.188024 188 26000ft 452kts
27-Aug-19 06:41 40.227192 -122.211831 188 26000ft 452kts
27-Aug-19 06:42 40.126941 -122.230973 188 26000ft 452kts
27-Aug-19 06:43 40.002298 -122.217133 170 26001ft 452kts
27-Aug-19 06:44 39.877815 -122.190970 170 26000ft 453kts
27-Aug-19 06:45 39.753547 -122.165215 170 26000ft 453kts
27-Aug-19 06:46 39.629021 -122.139614 171 26000ft 453kts
27-Aug-19 06:47 39.504296 -122.114105 171 26000ft 453kts
27-Aug-19 06:48 39.379793 -122.088752 171 26000ft 453kts
27-Aug-19 06:49 39.255123 -122.063463 171 26000ft 454kts
27-Aug-19 06:50 39.130020 -122.038186 171 26000ft 454kts
27-Aug-19 06:51 39.014722 -122.085294 221 25890ft 447kts
27-Aug-19 06:52 38.925583 -122.191950 222 23943ft 431kts
27-Aug-19 06:53 38.839307 -122.294184 222 22172ft 399kts
27-Aug-19 06:54 38.764523 -122.381829 222 20789ft 343kts
27-Aug-19 06:55 38.693857 -122.458763 207 18338ft 325kts
27-Aug-19 06:56 38.605865 -122.466591 173 16914ft 350kts
27-Aug-19 06:57 38.503728 -122.451322 173 14531ft 376kts
27-Aug-19 06:58 38.402719 -122.436100 173 12440ft 353kts
27-Aug-19 06:58 38.323230 -122.424105 173 11019ft 338kts
27-Aug-19 07:00 38.222640 -122.409493 173 9729ft 270kts
27-Aug-19 07:00 38.162268 -122.400109 172 8305ft 256kts
27-Aug-19 07:02 38.082868 -122.387772 173 7087ft 240kts
27-Aug-19 07:03 38.018412 -122.377835 173 7075ft 234kts
27-Aug-19 07:03 37.972443 -122.344991 140 7080ft 232kts
27-Aug-19 07:05 37.908460 -122.278680 140 6570ft 263kts
27-Aug-19 07:05 37.861989 -122.232055 141 5210ft 244kts
27-Aug-19 07:06 37.812097 -122.182946 141 5061ft 213kts
27-Aug-19 07:07 37.773480 -122.131714 113 5062ft 196kts
27-Aug-19 07:08 37.761695 -122.063148 104 5078ft 218kts
27-Aug-19 07:09 37.745794 -121.986258 104 5068ft 232kts
27-Aug-19 07:10 37.710819 -121.922585 153 5075ft 236kts
27-Aug-19 07:11 37.649275 -121.914017 219 4318ft 243kts
27-Aug-19 07:12 37.604269 -121.968418 224 4069ft 215kts
27-Aug-19 07:13 37.574271 -122.035640 277 3029ft 239kts
27-Aug-19 07:14 37.617045 -122.089463 313 2589ft 228kts
27-Aug-19 07:15 37.652231 -122.140954 311 1389ft 168kts
27-Aug-19 07:16 37.681677 -122.184549 308 684ft 151kts
27-Aug-19 07:17 37.705950 -122.220960 310 10ft 102kts
27-Aug-19 07:18 37.711739 -122.226049 39 9ft 16kts
27-Aug-19 07:19 37.713623 -122.221439 84 9ft 8kts
27-Aug-19 07:20 37.717000 -122.217087 44 9ft 21kts
27-Aug-19 07:21 37.720451 -122.212700 47 9ft 17kts
27-Aug-19 07:22 37.721479 -122.207088 63 9ft 4kts
27-Aug-19 07:23 37.724496 -122.205243 21 9ft 15kts
27-Aug-19 07:24 37.727005 -122.206077 290 9ft 0kts
27-Aug-19 07:25 37.727005 -122.206078 290 9ft 0kts
27-Aug-19 07:26 37.727005 -122.206078 290 9ft 0kts
27-Aug-19 07:27 37.727005 -122.206078 290 9ft 0kts
27-Aug-19 07:28 37.727005 -122.206078 290 9ft 0kts
27-Aug-19 07:29 37.727005 -122.206078 290 9ft 0kts
27-Aug-19 07:30 37.727005 -122.206078 290 9ft 0kts
27-Aug-19 07:31 37.727005 -122.206078 290 9ft 0kts
27-Aug-19 07:32 37.727005 -122.206078 290 9ft 0kts

Navigation Log

Ident Type
Flight plan parsing failed, navigation log unavailable